Gaspé Airport, Quebec

Past 24 Hour Conditions

This table is a summary of hourly weather conditions for the past 24 hours. This summary includes the following parameters: temperature, humidity, dew point, wind speed and direction, air pressure, visibility and/or wind chill and humidex.
Date / Time
(EDT)
Conditions Temp (°F) Humidity (%) Dew Point (°F) Wind (mph) Pressure (inches) Vis (mi) Wind Chill
19 April 2014
23:00 Light Snowshower 34 83 29 WNW 7 30.2 12 *
22:00 Light Snowshower 34 84 30 NW 9 gust 19 30.2 15 *
21:00 Light Snowshower 35 81 29 WNW 7 30.2 12 *
20:00 Mostly Cloudy 34 81 28 WSW 6 30.1 15 *
19:00 Partly Cloudy 35 78 29 WNW 6 30.1 15 *
18:00 Partly Cloudy 36 75 29 NW 6 30.1 15 *
17:00 Mostly Cloudy 37 73 29 NW 9 30.1 15 *
16:00 Mostly Cloudy 38 75 30 NNW 6 30.0 15 *
15:00 Mist 37 84 33 NNW 3 30.0 10 *
14:00 Mostly Cloudy 37 80 31 NNE 8 30.0 15 *
13:00 Partly Cloudy 39   63 27 E 11 30.0 15 *
12:00 Mostly Cloudy 38 58 24 E 4 30.0 15 *
11:00 Mostly Cloudy 35 74 28 E 8 30.0 15 *
10:00 Partly Cloudy 37 71 28 E 5 30.0 15 *
9:00 Cloudy 36 72 28 SSW 3 30.0 15 *
8:00 Cloudy 33 67 23 WSW 4 30.1 15 *
7:00 Cloudy 30 81 24 W 3 30.1 15 26
6:00 Mostly Cloudy 28   83 24 WSW 3 30.1 15 25
5:00 Mostly Cloudy 28   81 23 calm 30.1 15 *
4:00 Cloudy 28   80 23 WSW 3 30.1 15 25
3:00 Cloudy 30 78 24 calm 30.1 15 28
2:00 Cloudy 30 76 23 E 3 30.2 15 26
1:00 Clear 31 67 21 W 3 30.2 15 28
00:00 Cloudy 30 68 21 NW 3 30.2 15 28
18 April 2014
23:00 Mostly Cloudy 32 63 20 N 2 30.2 15 30
N/A
Not available
 ↑ 
Highest temperature
 ↓ 
Lowest temperature
*
Value not significant.

If you require additional historical weather information, please visit Climate Data Online.